LGKV

Alexander the Great International Airport

Kavala, Greece
TAF LGKV 182000Z 1821/1906 36008KT 9999 FEW020
Issued Valid From Valid To
Jul-18 @ 20:00 UTC
(2 hours ago)
Jul-18 @ 21:00 UTC
(an hour ago)
Jul-19 @ 06:00 UTC
(in 8 hours)
Jul-18 @ 21:00 to Jul-19 @ 06:00
TAF LGKV 182000Z 1821/1906 36008KT 9999 FEW020
Wind Visibility Clouds
360° at 8 knots 10,000+ meters
  • Few at 2,000' AGL
TAF LGKV 182000Z 1821/1906 36008KT 9999 FEW020
Issued Jul-18 @ 20:00 UTC
(2 hours ago)
Valid From Jul-18 @ 21:00 UTC
(an hour ago)
Valid To Jul-19 @ 06:00 UTC
(in 8 hours)
Jul-18 @ 21:00 - Jul-19 @ 06:00
Wind Visibility
360° at 8 knots 10,000+ meters
Clouds
  • Few at 2,000' AGL